Belchatow, Poland
Current Conditions -  °F | °C
As of 11:00 AM on Sunday 21 Dec 2014 (Local Time) from EPLL Reporting Station
Scattered Clouds Scattered Clouds  
Wind Chill: 29°   Ceiling: Unl
Heat Index: 37°   Visibility: 6mi
Dew Point: 32°   Wind: 14mph
Humidity: 81%   Direction: 270°W
Pressure: 30.03"   Gusts: 26mph
Location:  51.37°N, 19.36°E
Report Text: EPLL 210900Z 27012G23KT 9999 SCT020 03/00 Q1017
Loading
Personal Weather Stations






























Interactive Weather Map New forecast layout! Learn more

10-Day Weather Forecast

Advertisements
Track Severe Weather on mobile